Terminal Aerodrome Forecast
Issued by NWS

Home | Current Version | Previous Version | Graphics & Text | Print | Product List | Glossary On
Versions: 1 2 3 4 5 6 7 8 9 10 11 12 13 14 15 16 17 18 19
000
FTUS43 KMPX 291134
TAFRNH
TAF
KRNH 291134Z 2912/3012 00000KT 1/2SM FG OVC001
      TEMPO 2912/2914 3SM BR BKN004
     FM291400 31005KT P6SM BKN100
     FM291800 31010KT 6SM -RA BKN050
      TEMPO 2920/2924 3SM -TSRA BKN030CB
     FM300000 30006KT P6SM VCSH SCT050 BKN120
     FM300300 32004KT P6SM SKC
      TEMPO 3008/3012 3SM BR SCT001=

USA.gov is the U.S. government's official web portal to all federal, state and local government web resources and services.